sensor_id;sensor_type;location;lat;lon;timestamp;P1;durP1;ratioP1;P2;durP2;ratioP2
8909;SDS011;4490;49.072;8.804;2023-10-31T00:00:15;1.57;;;1.30;;
8909;SDS011;4490;49.072;8.804;2023-10-31T00:02:42;1.60;;;1.50;;
8909;SDS011;4490;49.072;8.804;2023-10-31T00:05:07;2.03;;;1.50;;
8909;SDS011;4490;49.072;8.804;2023-10-31T00:07:33;2.13;;;1.80;;
8909;SDS011;4490;49.072;8.804;2023-10-31T00:09:59;1.80;;;1.70;;
8909;SDS011;4490;49.072;8.804;2023-10-31T00:12:25;2.20;;;2.00;;
8909;SDS011;4490;49.072;8.804;2023-10-31T00:14:50;1.63;;;1.50;;
8909;SDS011;4490;49.072;8.804;2023-10-31T00:17:16;3.13;;;1.90;;
8909;SDS011;4490;49.072;8.804;2023-10-31T00:19:41;2.17;;;1.93;;
8909;SDS011;4490;49.072;8.804;2023-10-31T00:22:07;2.43;;;1.70;;
8909;SDS011;4490;49.072;8.804;2023-10-31T00:24:32;1.97;;;1.47;;
8909;SDS011;4490;49.072;8.804;2023-10-31T00:26:58;2.17;;;1.47;;
8909;SDS011;4490;49.072;8.804;2023-10-31T00:29:24;1.60;;;1.50;;
8909;SDS011;4490;49.072;8.804;2023-10-31T00:31:49;1.50;;;1.40;;
8909;SDS011;4490;49.072;8.804;2023-10-31T00:34:15;2.43;;;1.30;;
8909;SDS011;4490;49.072;8.804;2023-10-31T00:36:40;2.03;;;1.27;;
8909;SDS011;4490;49.072;8.804;2023-10-31T00:39:06;1.40;;;1.30;;
8909;SDS011;4490;49.072;8.804;2023-10-31T00:41:32;2.77;;;1.47;;
8909;SDS011;4490;49.072;8.804;2023-10-31T00:43:57;1.67;;;1.50;;
8909;SDS011;4490;49.072;8.804;2023-10-31T00:46:23;3.93;;;1.20;;
8909;SDS011;4490;49.072;8.804;2023-10-31T00:48:49;2.67;;;1.37;;
8909;SDS011;4490;49.072;8.804;2023-10-31T00:51:15;1.30;;;1.20;;
8909;SDS011;4490;49.072;8.804;2023-10-31T00:53:40;1.57;;;1.47;;
8909;SDS011;4490;49.072;8.804;2023-10-31T00:56:07;1.63;;;1.33;;
8909;SDS011;4490;49.072;8.804;2023-10-31T00:58:32;1.40;;;1.30;;
8909;SDS011;4490;49.072;8.804;2023-10-31T01:00:58;1.20;;;1.10;;
8909;SDS011;4490;49.072;8.804;2023-10-31T01:03:24;1.10;;;1.10;;
8909;SDS011;4490;49.072;8.804;2023-10-31T01:05:49;2.27;;;1.40;;
8909;SDS011;4490;49.072;8.804;2023-10-31T01:08:15;1.27;;;1.20;;
8909;SDS011;4490;49.072;8.804;2023-10-31T01:10:41;1.27;;;1.10;;
8909;SDS011;4490;49.072;8.804;2023-10-31T01:13:06;3.23;;;1.00;;
8909;SDS011;4490;49.072;8.804;2023-10-31T01:15:32;1.70;;;1.10;;
8909;SDS011;4490;49.072;8.804;2023-10-31T01:17:58;1.10;;;1.00;;
8909;SDS011;4490;49.072;8.804;2023-10-31T01:20:23;1.60;;;1.30;;
8909;SDS011;4490;49.072;8.804;2023-10-31T01:22:49;1.20;;;1.13;;
8909;SDS011;4490;49.072;8.804;2023-10-31T01:25:14;1.87;;;1.17;;
8909;SDS011;4490;49.072;8.804;2023-10-31T01:27:40;1.30;;;1.20;;
8909;SDS011;4490;49.072;8.804;2023-10-31T01:30:07;3.77;;;1.40;;
8909;SDS011;4490;49.072;8.804;2023-10-31T01:32:33;1.50;;;1.20;;
8909;SDS011;4490;49.072;8.804;2023-10-31T01:34:59;2.13;;;1.23;;
8909;SDS011;4490;49.072;8.804;2023-10-31T01:37:24;1.47;;;1.20;;
8909;SDS011;4490;49.072;8.804;2023-10-31T01:39:50;1.60;;;1.20;;
8909;SDS011;4490;49.072;8.804;2023-10-31T01:42:16;1.47;;;1.23;;
8909;SDS011;4490;49.072;8.804;2023-10-31T01:44:42;3.07;;;1.30;;
8909;SDS011;4490;49.072;8.804;2023-10-31T01:47:07;1.00;;;1.00;;
8909;SDS011;4490;49.072;8.804;2023-10-31T01:49:34;1.40;;;1.00;;
8909;SDS011;4490;49.072;8.804;2023-10-31T01:52:01;1.70;;;1.27;;
8909;SDS011;4490;49.072;8.804;2023-10-31T01:54:28;1.33;;;1.10;;
8909;SDS011;4490;49.072;8.804;2023-10-31T01:56:54;1.30;;;1.10;;
8909;SDS011;4490;49.072;8.804;2023-10-31T01:59:23;3.87;;;1.30;;
8909;SDS011;4490;49.072;8.804;2023-10-31T02:01:52;1.83;;;1.10;;
8909;SDS011;4490;49.072;8.804;2023-10-31T02:04:19;2.07;;;1.17;;
8909;SDS011;4490;49.072;8.804;2023-10-31T02:06:45;1.77;;;1.07;;
8909;SDS011;4490;49.072;8.804;2023-10-31T02:09:10;1.97;;;1.20;;
8909;SDS011;4490;49.072;8.804;2023-10-31T02:11:36;1.33;;;1.23;;
8909;SDS011;4490;49.072;8.804;2023-10-31T02:14:02;2.47;;;1.20;;
8909;SDS011;4490;49.072;8.804;2023-10-31T02:16:28;1.10;;;1.10;;
8909;SDS011;4490;49.072;8.804;2023-10-31T02:18:53;2.50;;;1.30;;
8909;SDS011;4490;49.072;8.804;2023-10-31T02:21:19;2.87;;;1.10;;
8909;SDS011;4490;49.072;8.804;2023-10-31T02:23:55;4.07;;;1.40;;
8909;SDS011;4490;49.072;8.804;2023-10-31T02:26:22;1.63;;;1.30;;
8909;SDS011;4490;49.072;8.804;2023-10-31T02:28:48;1.37;;;1.27;;
8909;SDS011;4490;49.072;8.804;2023-10-31T02:31:13;3.67;;;1.20;;
8909;SDS011;4490;49.072;8.804;2023-10-31T02:33:39;2.57;;;1.40;;
8909;SDS011;4490;49.072;8.804;2023-10-31T02:36:04;1.00;;;1.00;;
8909;SDS011;4490;49.072;8.804;2023-10-31T02:38:30;2.73;;;1.13;;
8909;SDS011;4490;49.072;8.804;2023-10-31T02:40:56;1.70;;;1.20;;
8909;SDS011;4490;49.072;8.804;2023-10-31T02:43:21;1.40;;;1.03;;
8909;SDS011;4490;49.072;8.804;2023-10-31T02:45:47;1.57;;;1.00;;
8909;SDS011;4490;49.072;8.804;2023-10-31T02:48:12;2.40;;;1.33;;
8909;SDS011;4490;49.072;8.804;2023-10-31T02:50:38;2.77;;;1.33;;
8909;SDS011;4490;49.072;8.804;2023-10-31T02:53:04;1.30;;;1.13;;
8909;SDS011;4490;49.072;8.804;2023-10-31T02:55:29;1.57;;;1.17;;
8909;SDS011;4490;49.072;8.804;2023-10-31T02:57:55;2.03;;;1.40;;
8909;SDS011;4490;49.072;8.804;2023-10-31T03:00:20;1.43;;;1.33;;
8909;SDS011;4490;49.072;8.804;2023-10-31T03:02:46;1.30;;;1.30;;
8909;SDS011;4490;49.072;8.804;2023-10-31T03:05:12;1.40;;;1.30;;
8909;SDS011;4490;49.072;8.804;2023-10-31T03:07:37;1.70;;;1.30;;
8909;SDS011;4490;49.072;8.804;2023-10-31T03:10:03;1.47;;;1.20;;
8909;SDS011;4490;49.072;8.804;2023-10-31T03:12:29;2.20;;;1.40;;
8909;SDS011;4490;49.072;8.804;2023-10-31T03:14:55;1.20;;;1.10;;
8909;SDS011;4490;49.072;8.804;2023-10-31T03:17:20;1.27;;;1.20;;
8909;SDS011;4490;49.072;8.804;2023-10-31T03:19:46;1.93;;;1.20;;
8909;SDS011;4490;49.072;8.804;2023-10-31T03:22:11;2.10;;;1.10;;
8909;SDS011;4490;49.072;8.804;2023-10-31T03:24:38;2.93;;;1.10;;
8909;SDS011;4490;49.072;8.804;2023-10-31T03:27:04;1.13;;;1.10;;
8909;SDS011;4490;49.072;8.804;2023-10-31T03:29:29;4.90;;;1.30;;
8909;SDS011;4490;49.072;8.804;2023-10-31T03:31:55;2.13;;;1.07;;
8909;SDS011;4490;49.072;8.804;2023-10-31T03:34:20;1.50;;;1.13;;
8909;SDS011;4490;49.072;8.804;2023-10-31T03:36:46;2.30;;;1.20;;
8909;SDS011;4490;49.072;8.804;2023-10-31T03:39:11;2.80;;;1.23;;
8909;SDS011;4490;49.072;8.804;2023-10-31T03:41:37;1.00;;;1.00;;
8909;SDS011;4490;49.072;8.804;2023-10-31T03:44:03;1.13;;;1.00;;
8909;SDS011;4490;49.072;8.804;2023-10-31T03:46:28;3.83;;;1.00;;
8909;SDS011;4490;49.072;8.804;2023-10-31T03:48:54;1.10;;;1.10;;
8909;SDS011;4490;49.072;8.804;2023-10-31T03:51:19;3.93;;;1.47;;
8909;SDS011;4490;49.072;8.804;2023-10-31T03:53:45;3.93;;;1.30;;
8909;SDS011;4490;49.072;8.804;2023-10-31T03:56:11;1.77;;;1.20;;
8909;SDS011;4490;49.072;8.804;2023-10-31T03:58:36;1.80;;;1.20;;
8909;SDS011;4490;49.072;8.804;2023-10-31T04:01:03;3.33;;;1.20;;
8909;SDS011;4490;49.072;8.804;2023-10-31T04:03:28;2.00;;;1.20;;
8909;SDS011;4490;49.072;8.804;2023-10-31T04:05:54;1.53;;;1.40;;
8909;SDS011;4490;49.072;8.804;2023-10-31T04:08:20;1.27;;;1.00;;
8909;SDS011;4490;49.072;8.804;2023-10-31T04:10:45;2.10;;;0.97;;
8909;SDS011;4490;49.072;8.804;2023-10-31T04:13:11;1.63;;;1.30;;
8909;SDS011;4490;49.072;8.804;2023-10-31T04:15:36;1.10;;;1.07;;
8909;SDS011;4490;49.072;8.804;2023-10-31T04:18:02;2.70;;;1.13;;
8909;SDS011;4490;49.072;8.804;2023-10-31T04:20:28;2.07;;;1.10;;
8909;SDS011;4490;49.072;8.804;2023-10-31T04:22:54;1.10;;;1.00;;
8909;SDS011;4490;49.072;8.804;2023-10-31T04:25:19;1.93;;;1.20;;
8909;SDS011;4490;49.072;8.804;2023-10-31T04:27:45;2.67;;;1.10;;
8909;SDS011;4490;49.072;8.804;2023-10-31T04:30:11;1.70;;;1.07;;
8909;SDS011;4490;49.072;8.804;2023-10-31T04:32:36;3.83;;;1.30;;
8909;SDS011;4490;49.072;8.804;2023-10-31T04:35:02;1.83;;;1.00;;
8909;SDS011;4490;49.072;8.804;2023-10-31T04:37:28;2.77;;;1.30;;
8909;SDS011;4490;49.072;8.804;2023-10-31T04:39:53;3.73;;;1.23;;
8909;SDS011;4490;49.072;8.804;2023-10-31T04:42:19;1.77;;;1.27;;
8909;SDS011;4490;49.072;8.804;2023-10-31T04:44:45;1.40;;;1.00;;
8909;SDS011;4490;49.072;8.804;2023-10-31T04:47:11;1.93;;;1.20;;
8909;SDS011;4490;49.072;8.804;2023-10-31T04:49:36;2.90;;;1.30;;
8909;SDS011;4490;49.072;8.804;2023-10-31T04:52:02;2.30;;;1.27;;
8909;SDS011;4490;49.072;8.804;2023-10-31T04:54:28;3.00;;;1.20;;
8909;SDS011;4490;49.072;8.804;2023-10-31T04:56:53;4.37;;;1.30;;
8909;SDS011;4490;49.072;8.804;2023-10-31T04:59:19;3.27;;;1.40;;
8909;SDS011;4490;49.072;8.804;2023-10-31T05:01:48;2.63;;;1.37;;
8909;SDS011;4490;49.072;8.804;2023-10-31T05:04:15;1.70;;;1.10;;
8909;SDS011;4490;49.072;8.804;2023-10-31T05:06:40;1.30;;;1.20;;
8909;SDS011;4490;49.072;8.804;2023-10-31T05:09:07;3.00;;;1.50;;
8909;SDS011;4490;49.072;8.804;2023-10-31T05:11:32;1.30;;;1.10;;
8909;SDS011;4490;49.072;8.804;2023-10-31T05:13:58;1.40;;;1.30;;
8909;SDS011;4490;49.072;8.804;2023-10-31T05:16:24;1.90;;;1.00;;
8909;SDS011;4490;49.072;8.804;2023-10-31T05:18:50;1.57;;;1.30;;
8909;SDS011;4490;49.072;8.804;2023-10-31T05:21:18;1.03;;;1.03;;
8909;SDS011;4490;49.072;8.804;2023-10-31T05:23:45;1.30;;;1.20;;
8909;SDS011;4490;49.072;8.804;2023-10-31T05:26:11;2.33;;;1.30;;
8909;SDS011;4490;49.072;8.804;2023-10-31T05:28:37;1.20;;;1.00;;
8909;SDS011;4490;49.072;8.804;2023-10-31T05:31:02;1.30;;;1.20;;
8909;SDS011;4490;49.072;8.804;2023-10-31T05:33:28;1.20;;;1.10;;
8909;SDS011;4490;49.072;8.804;2023-10-31T05:35:54;1.87;;;1.20;;
8909;SDS011;4490;49.072;8.804;2023-10-31T05:38:19;1.20;;;1.10;;
8909;SDS011;4490;49.072;8.804;2023-10-31T05:40:45;1.60;;;1.17;;
8909;SDS011;4490;49.072;8.804;2023-10-31T05:43:11;2.00;;;1.07;;
8909;SDS011;4490;49.072;8.804;2023-10-31T05:45:36;1.10;;;1.00;;
8909;SDS011;4490;49.072;8.804;2023-10-31T05:48:02;1.00;;;1.00;;
8909;SDS011;4490;49.072;8.804;2023-10-31T05:50:28;1.30;;;1.20;;
8909;SDS011;4490;49.072;8.804;2023-10-31T05:52:54;2.67;;;1.40;;
8909;SDS011;4490;49.072;8.804;2023-10-31T05:55:20;2.40;;;1.20;;
8909;SDS011;4490;49.072;8.804;2023-10-31T05:57:45;2.10;;;1.20;;
8909;SDS011;4490;49.072;8.804;2023-10-31T06:00:11;1.73;;;1.20;;
8909;SDS011;4490;49.072;8.804;2023-10-31T06:02:37;3.23;;;1.20;;
8909;SDS011;4490;49.072;8.804;2023-10-31T06:05:02;3.00;;;1.20;;
8909;SDS011;4490;49.072;8.804;2023-10-31T06:07:28;4.93;;;1.53;;
8909;SDS011;4490;49.072;8.804;2023-10-31T06:09:55;2.63;;;1.10;;
8909;SDS011;4490;49.072;8.804;2023-10-31T06:12:20;3.60;;;1.07;;
8909;SDS011;4490;49.072;8.804;2023-10-31T06:14:46;0.97;;;0.97;;
8909;SDS011;4490;49.072;8.804;2023-10-31T06:17:12;2.80;;;1.30;;
8909;SDS011;4490;49.072;8.804;2023-10-31T06:19:37;1.60;;;1.30;;
8909;SDS011;4490;49.072;8.804;2023-10-31T06:22:03;1.80;;;1.10;;
8909;SDS011;4490;49.072;8.804;2023-10-31T06:24:29;1.20;;;1.20;;
8909;SDS011;4490;49.072;8.804;2023-10-31T06:26:54;1.27;;;1.20;;
8909;SDS011;4490;49.072;8.804;2023-10-31T06:29:20;1.40;;;1.10;;
8909;SDS011;4490;49.072;8.804;2023-10-31T06:31:46;1.20;;;1.10;;
8909;SDS011;4490;49.072;8.804;2023-10-31T06:34:12;2.20;;;0.90;;
8909;SDS011;4490;49.072;8.804;2023-10-31T06:36:38;4.93;;;1.10;;
8909;SDS011;4490;49.072;8.804;2023-10-31T06:39:03;1.40;;;1.30;;
8909;SDS011;4490;49.072;8.804;2023-10-31T06:41:29;2.30;;;1.27;;
8909;SDS011;4490;49.072;8.804;2023-10-31T06:43:54;1.53;;;0.90;;
8909;SDS011;4490;49.072;8.804;2023-10-31T06:46:20;1.27;;;1.17;;
8909;SDS011;4490;49.072;8.804;2023-10-31T06:48:46;3.07;;;1.30;;
8909;SDS011;4490;49.072;8.804;2023-10-31T06:51:11;3.40;;;1.20;;
8909;SDS011;4490;49.072;8.804;2023-10-31T06:53:37;1.80;;;1.40;;
8909;SDS011;4490;49.072;8.804;2023-10-31T06:56:03;1.93;;;1.17;;
8909;SDS011;4490;49.072;8.804;2023-10-31T06:58:28;1.40;;;1.30;;
8909;SDS011;4490;49.072;8.804;2023-10-31T07:00:54;1.23;;;1.10;;
8909;SDS011;4490;49.072;8.804;2023-10-31T07:03:23;2.77;;;1.03;;
8909;SDS011;4490;49.072;8.804;2023-10-31T07:05:48;3.40;;;1.40;;
8909;SDS011;4490;49.072;8.804;2023-10-31T07:08:14;3.33;;;1.10;;
8909;SDS011;4490;49.072;8.804;2023-10-31T07:10:39;3.63;;;1.37;;
8909;SDS011;4490;49.072;8.804;2023-10-31T07:13:05;2.43;;;1.10;;
8909;SDS011;4490;49.072;8.804;2023-10-31T07:15:31;1.40;;;1.23;;
8909;SDS011;4490;49.072;8.804;2023-10-31T07:17:56;2.43;;;1.10;;
8909;SDS011;4490;49.072;8.804;2023-10-31T07:20:22;1.30;;;1.20;;
8909;SDS011;4490;49.072;8.804;2023-10-31T07:22:48;1.87;;;1.60;;
8909;SDS011;4490;49.072;8.804;2023-10-31T07:25:13;1.70;;;1.10;;
8909;SDS011;4490;49.072;8.804;2023-10-31T07:27:39;5.17;;;1.20;;
8909;SDS011;4490;49.072;8.804;2023-10-31T07:30:04;4.20;;;1.60;;
8909;SDS011;4490;49.072;8.804;2023-10-31T07:32:31;2.70;;;1.10;;
8909;SDS011;4490;49.072;8.804;2023-10-31T07:34:56;1.87;;;1.17;;
8909;SDS011;4490;49.072;8.804;2023-10-31T07:37:22;2.63;;;1.20;;
8909;SDS011;4490;49.072;8.804;2023-10-31T07:39:48;3.80;;;1.40;;
8909;SDS011;4490;49.072;8.804;2023-10-31T07:42:15;2.93;;;1.33;;
8909;SDS011;4490;49.072;8.804;2023-10-31T07:44:41;2.27;;;1.40;;
8909;SDS011;4490;49.072;8.804;2023-10-31T07:47:07;2.93;;;1.30;;
8909;SDS011;4490;49.072;8.804;2023-10-31T07:49:32;3.17;;;1.30;;
8909;SDS011;4490;49.072;8.804;2023-10-31T07:51:58;2.03;;;1.40;;
8909;SDS011;4490;49.072;8.804;2023-10-31T07:54:23;1.73;;;1.30;;
8909;SDS011;4490;49.072;8.804;2023-10-31T07:56:49;1.90;;;1.10;;
8909;SDS011;4490;49.072;8.804;2023-10-31T07:59:14;2.93;;;1.40;;
8909;SDS011;4490;49.072;8.804;2023-10-31T08:01:40;2.80;;;1.30;;
8909;SDS011;4490;49.072;8.804;2023-10-31T08:04:06;1.83;;;1.20;;
8909;SDS011;4490;49.072;8.804;2023-10-31T08:06:31;4.23;;;1.53;;
8909;SDS011;4490;49.072;8.804;2023-10-31T08:08:57;2.93;;;1.33;;
8909;SDS011;4490;49.072;8.804;2023-10-31T08:11:22;2.20;;;1.50;;
8909;SDS011;4490;49.072;8.804;2023-10-31T08:13:48;2.30;;;1.40;;
8909;SDS011;4490;49.072;8.804;2023-10-31T08:16:17;4.70;;;1.43;;
8909;SDS011;4490;49.072;8.804;2023-10-31T08:18:44;1.67;;;1.20;;
8909;SDS011;4490;49.072;8.804;2023-10-31T08:21:11;1.70;;;1.50;;
8909;SDS011;4490;49.072;8.804;2023-10-31T08:23:37;2.93;;;1.43;;
8909;SDS011;4490;49.072;8.804;2023-10-31T08:26:03;3.77;;;1.40;;
8909;SDS011;4490;49.072;8.804;2023-10-31T08:28:28;1.40;;;1.30;;
8909;SDS011;4490;49.072;8.804;2023-10-31T08:30:55;2.97;;;1.40;;
8909;SDS011;4490;49.072;8.804;2023-10-31T08:33:21;2.27;;;1.40;;
8909;SDS011;4490;49.072;8.804;2023-10-31T08:35:46;3.93;;;1.47;;
8909;SDS011;4490;49.072;8.804;2023-10-31T08:38:12;3.43;;;1.60;;
8909;SDS011;4490;49.072;8.804;2023-10-31T08:40:38;3.40;;;1.50;;
8909;SDS011;4490;49.072;8.804;2023-10-31T08:43:04;4.33;;;1.53;;
8909;SDS011;4490;49.072;8.804;2023-10-31T08:45:31;3.90;;;1.40;;
8909;SDS011;4490;49.072;8.804;2023-10-31T08:47:57;2.50;;;1.57;;
8909;SDS011;4490;49.072;8.804;2023-10-31T08:50:23;3.53;;;1.50;;
8909;SDS011;4490;49.072;8.804;2023-10-31T08:52:49;4.03;;;1.77;;
8909;SDS011;4490;49.072;8.804;2023-10-31T08:55:15;5.67;;;1.70;;
8909;SDS011;4490;49.072;8.804;2023-10-31T08:57:41;4.20;;;1.63;;
8909;SDS011;4490;49.072;8.804;2023-10-31T09:00:06;7.33;;;1.70;;
8909;SDS011;4490;49.072;8.804;2023-10-31T09:02:32;3.60;;;1.40;;
8909;SDS011;4490;49.072;8.804;2023-10-31T09:04:59;7.77;;;1.70;;
8909;SDS011;4490;49.072;8.804;2023-10-31T09:07:24;5.43;;;1.37;;
8909;SDS011;4490;49.072;8.804;2023-10-31T09:09:50;4.80;;;1.80;;
8909;SDS011;4490;49.072;8.804;2023-10-31T09:12:15;2.83;;;1.47;;
8909;SDS011;4490;49.072;8.804;2023-10-31T09:14:41;5.73;;;1.70;;
8909;SDS011;4490;49.072;8.804;2023-10-31T09:17:07;4.60;;;1.50;;
8909;SDS011;4490;49.072;8.804;2023-10-31T09:19:33;7.80;;;1.70;;
8909;SDS011;4490;49.072;8.804;2023-10-31T09:21:58;7.00;;;1.60;;
8909;SDS011;4490;49.072;8.804;2023-10-31T09:24:24;5.43;;;2.03;;
8909;SDS011;4490;49.072;8.804;2023-10-31T09:26:49;3.03;;;1.70;;
8909;SDS011;4490;49.072;8.804;2023-10-31T09:29:15;4.87;;;1.70;;
8909;SDS011;4490;49.072;8.804;2023-10-31T09:31:41;5.27;;;1.43;;
8909;SDS011;4490;49.072;8.804;2023-10-31T09:34:06;3.33;;;1.77;;
8909;SDS011;4490;49.072;8.804;2023-10-31T09:36:32;2.80;;;1.53;;
8909;SDS011;4490;49.072;8.804;2023-10-31T09:39:00;3.00;;;1.40;;
8909;SDS011;4490;49.072;8.804;2023-10-31T09:41:26;7.50;;;2.00;;
8909;SDS011;4490;49.072;8.804;2023-10-31T09:43:52;4.23;;;1.70;;
8909;SDS011;4490;49.072;8.804;2023-10-31T09:46:19;4.10;;;1.80;;
8909;SDS011;4490;49.072;8.804;2023-10-31T09:48:46;6.13;;;1.80;;
8909;SDS011;4490;49.072;8.804;2023-10-31T09:51:12;4.40;;;1.60;;
8909;SDS011;4490;49.072;8.804;2023-10-31T09:53:38;4.40;;;1.90;;
8909;SDS011;4490;49.072;8.804;2023-10-31T09:56:06;4.77;;;1.40;;
8909;SDS011;4490;49.072;8.804;2023-10-31T09:58:32;7.37;;;2.07;;
8909;SDS011;4490;49.072;8.804;2023-10-31T10:00:58;4.47;;;1.80;;
8909;SDS011;4490;49.072;8.804;2023-10-31T10:03:23;8.70;;;1.50;;
8909;SDS011;4490;49.072;8.804;2023-10-31T10:05:49;6.03;;;1.70;;
8909;SDS011;4490;49.072;8.804;2023-10-31T10:08:15;6.67;;;1.53;;
8909;SDS011;4490;49.072;8.804;2023-10-31T10:10:41;5.43;;;1.73;;
8909;SDS011;4490;49.072;8.804;2023-10-31T10:13:07;3.80;;;1.60;;
8909;SDS011;4490;49.072;8.804;2023-10-31T10:15:49;7.00;;;2.10;;
8909;SDS011;4490;49.072;8.804;2023-10-31T10:18:26;4.87;;;1.90;;
8909;SDS011;4490;49.072;8.804;2023-10-31T10:21:02;7.50;;;2.33;;
8909;SDS011;4490;49.072;8.804;2023-10-31T10:23:30;4.23;;;1.80;;
8909;SDS011;4490;49.072;8.804;2023-10-31T10:25:56;3.80;;;2.20;;
8909;SDS011;4490;49.072;8.804;2023-10-31T10:28:23;4.37;;;1.70;;
8909;SDS011;4490;49.072;8.804;2023-10-31T10:30:54;4.90;;;1.90;;
8909;SDS011;4490;49.072;8.804;2023-10-31T10:33:20;3.93;;;1.67;;
8909;SDS011;4490;49.072;8.804;2023-10-31T10:35:46;4.50;;;1.67;;
8909;SDS011;4490;49.072;8.804;2023-10-31T10:38:13;4.33;;;1.47;;
8909;SDS011;4490;49.072;8.804;2023-10-31T10:40:43;5.07;;;1.77;;
8909;SDS011;4490;49.072;8.804;2023-10-31T10:43:15;4.10;;;1.70;;
8909;SDS011;4490;49.072;8.804;2023-10-31T10:45:51;3.10;;;1.67;;
8909;SDS011;4490;49.072;8.804;2023-10-31T10:48:22;3.80;;;1.57;;
8909;SDS011;4490;49.072;8.804;2023-10-31T10:50:57;2.23;;;1.40;;
8909;SDS011;4490;49.072;8.804;2023-10-31T10:53:29;4.23;;;1.53;;
8909;SDS011;4490;49.072;8.804;2023-10-31T10:56:03;5.70;;;1.60;;
8909;SDS011;4490;49.072;8.804;2023-10-31T10:58:36;3.73;;;1.70;;
8909;SDS011;4490;49.072;8.804;2023-10-31T11:01:09;2.83;;;1.50;;
8909;SDS011;4490;49.072;8.804;2023-10-31T11:03:35;6.33;;;1.40;;
8909;SDS011;4490;49.072;8.804;2023-10-31T11:06:02;4.10;;;1.60;;
8909;SDS011;4490;49.072;8.804;2023-10-31T11:08:29;7.77;;;1.90;;
8909;SDS011;4490;49.072;8.804;2023-10-31T11:10:57;3.00;;;1.53;;
8909;SDS011;4490;49.072;8.804;2023-10-31T11:13:23;2.80;;;1.83;;
8909;SDS011;4490;49.072;8.804;2023-10-31T11:15:51;4.67;;;1.83;;
8909;SDS011;4490;49.072;8.804;2023-10-31T11:18:20;2.57;;;1.30;;
8909;SDS011;4490;49.072;8.804;2023-10-31T11:20:46;2.63;;;1.43;;
8909;SDS011;4490;49.072;8.804;2023-10-31T11:23:13;5.23;;;1.67;;
8909;SDS011;4490;49.072;8.804;2023-10-31T11:25:42;3.67;;;1.60;;
8909;SDS011;4490;49.072;8.804;2023-10-31T11:28:12;3.30;;;1.40;;
8909;SDS011;4490;49.072;8.804;2023-10-31T11:30:39;3.77;;;1.50;;
8909;SDS011;4490;49.072;8.804;2023-10-31T11:33:05;3.60;;;1.70;;
8909;SDS011;4490;49.072;8.804;2023-10-31T11:35:34;3.47;;;2.17;;
8909;SDS011;4490;49.072;8.804;2023-10-31T11:38:04;2.83;;;1.40;;
8909;SDS011;4490;49.072;8.804;2023-10-31T11:40:34;3.73;;;1.43;;
8909;SDS011;4490;49.072;8.804;2023-10-31T11:43:05;2.63;;;1.60;;
8909;SDS011;4490;49.072;8.804;2023-10-31T11:45:35;2.70;;;1.40;;
8909;SDS011;4490;49.072;8.804;2023-10-31T11:48:02;3.43;;;1.20;;
8909;SDS011;4490;49.072;8.804;2023-10-31T11:50:30;1.53;;;1.30;;
8909;SDS011;4490;49.072;8.804;2023-10-31T11:53:00;4.57;;;1.83;;
8909;SDS011;4490;49.072;8.804;2023-10-31T11:55:27;2.80;;;1.40;;
8909;SDS011;4490;49.072;8.804;2023-10-31T11:57:53;2.80;;;1.33;;
8909;SDS011;4490;49.072;8.804;2023-10-31T12:00:22;3.33;;;1.20;;
8909;SDS011;4490;49.072;8.804;2023-10-31T12:02:58;2.27;;;1.50;;
8909;SDS011;4490;49.072;8.804;2023-10-31T12:05:27;1.70;;;1.50;;
8909;SDS011;4490;49.072;8.804;2023-10-31T12:07:53;4.13;;;1.77;;
8909;SDS011;4490;49.072;8.804;2023-10-31T12:10:23;2.47;;;1.40;;
8909;SDS011;4490;49.072;8.804;2023-10-31T12:12:50;2.93;;;1.60;;
8909;SDS011;4490;49.072;8.804;2023-10-31T12:15:16;4.37;;;1.60;;
8909;SDS011;4490;49.072;8.804;2023-10-31T12:17:42;3.10;;;1.70;;
8909;SDS011;4490;49.072;8.804;2023-10-31T12:20:08;3.93;;;1.63;;
8909;SDS011;4490;49.072;8.804;2023-10-31T12:22:34;2.70;;;1.80;;
8909;SDS011;4490;49.072;8.804;2023-10-31T12:25:03;5.00;;;1.83;;
8909;SDS011;4490;49.072;8.804;2023-10-31T12:27:46;3.03;;;1.60;;
8909;SDS011;4490;49.072;8.804;2023-10-31T12:30:16;4.80;;;1.53;;
8909;SDS011;4490;49.072;8.804;2023-10-31T12:32:43;3.47;;;1.90;;
8909;SDS011;4490;49.072;8.804;2023-10-31T12:35:15;5.83;;;2.20;;
8909;SDS011;4490;49.072;8.804;2023-10-31T12:37:46;4.20;;;2.10;;
8909;SDS011;4490;49.072;8.804;2023-10-31T12:40:17;4.43;;;2.53;;
8909;SDS011;4490;49.072;8.804;2023-10-31T12:42:44;3.80;;;2.50;;
8909;SDS011;4490;49.072;8.804;2023-10-31T12:45:14;3.87;;;2.47;;
8909;SDS011;4490;49.072;8.804;2023-10-31T12:47:42;6.17;;;2.27;;
8909;SDS011;4490;49.072;8.804;2023-10-31T12:50:14;2.50;;;2.30;;
8909;SDS011;4490;49.072;8.804;2023-10-31T12:55:13;4.20;;;2.60;;
8909;SDS011;4490;49.072;8.804;2023-10-31T12:57:39;8.97;;;2.30;;
8909;SDS011;4490;49.072;8.804;2023-10-31T13:00:05;6.13;;;2.27;;
8909;SDS011;4490;49.072;8.804;2023-10-31T13:02:37;4.63;;;2.30;;
8909;SDS011;4490;49.072;8.804;2023-10-31T13:05:13;5.57;;;2.20;;
8909;SDS011;4490;49.072;8.804;2023-10-31T13:07:50;4.20;;;2.23;;
8909;SDS011;4490;49.072;8.804;2023-10-31T13:10:17;3.93;;;1.90;;
8909;SDS011;4490;49.072;8.804;2023-10-31T13:12:50;3.07;;;1.63;;
8909;SDS011;4490;49.072;8.804;2023-10-31T13:15:16;3.10;;;1.87;;
8909;SDS011;4490;49.072;8.804;2023-10-31T13:17:44;3.03;;;1.73;;
8909;SDS011;4490;49.072;8.804;2023-10-31T13:20:10;5.07;;;2.20;;
8909;SDS011;4490;49.072;8.804;2023-10-31T13:22:37;2.40;;;1.70;;
8909;SDS011;4490;49.072;8.804;2023-10-31T13:25:06;2.40;;;1.57;;
8909;SDS011;4490;49.072;8.804;2023-10-31T13:27:35;2.50;;;1.50;;
8909;SDS011;4490;49.072;8.804;2023-10-31T13:30:01;1.90;;;1.70;;
8909;SDS011;4490;49.072;8.804;2023-10-31T13:32:27;2.07;;;1.60;;
8909;SDS011;4490;49.072;8.804;2023-10-31T13:34:53;3.53;;;1.67;;
8909;SDS011;4490;49.072;8.804;2023-10-31T13:37:18;3.37;;;1.80;;
8909;SDS011;4490;49.072;8.804;2023-10-31T13:39:44;1.83;;;1.60;;
8909;SDS011;4490;49.072;8.804;2023-10-31T13:42:10;2.27;;;1.60;;
8909;SDS011;4490;49.072;8.804;2023-10-31T13:44:36;1.63;;;1.50;;
8909;SDS011;4490;49.072;8.804;2023-10-31T13:47:02;4.43;;;1.90;;
8909;SDS011;4490;49.072;8.804;2023-10-31T13:49:28;3.00;;;1.70;;
8909;SDS011;4490;49.072;8.804;2023-10-31T13:51:54;3.07;;;1.70;;
8909;SDS011;4490;49.072;8.804;2023-10-31T13:54:20;2.47;;;1.60;;
8909;SDS011;4490;49.072;8.804;2023-10-31T13:56:46;1.60;;;1.50;;
8909;SDS011;4490;49.072;8.804;2023-10-31T13:59:12;1.60;;;1.40;;
8909;SDS011;4490;49.072;8.804;2023-10-31T14:01:38;3.07;;;1.50;;
8909;SDS011;4490;49.072;8.804;2023-10-31T14:04:05;2.50;;;1.60;;
8909;SDS011;4490;49.072;8.804;2023-10-31T14:06:32;3.23;;;1.60;;
8909;SDS011;4490;49.072;8.804;2023-10-31T14:08:58;2.23;;;1.70;;
8909;SDS011;4490;49.072;8.804;2023-10-31T14:11:25;3.50;;;1.70;;
8909;SDS011;4490;49.072;8.804;2023-10-31T14:13:50;3.10;;;1.60;;
8909;SDS011;4490;49.072;8.804;2023-10-31T14:16:17;2.00;;;1.60;;
8909;SDS011;4490;49.072;8.804;2023-10-31T14:18:43;4.17;;;1.60;;
8909;SDS011;4490;49.072;8.804;2023-10-31T14:21:11;2.50;;;1.63;;
8909;SDS011;4490;49.072;8.804;2023-10-31T14:23:36;2.90;;;1.50;;
8909;SDS011;4490;49.072;8.804;2023-10-31T14:26:02;2.70;;;1.60;;
8909;SDS011;4490;49.072;8.804;2023-10-31T14:28:28;2.40;;;1.70;;
8909;SDS011;4490;49.072;8.804;2023-10-31T14:30:53;3.50;;;1.90;;
8909;SDS011;4490;49.072;8.804;2023-10-31T14:33:19;3.17;;;1.63;;
8909;SDS011;4490;49.072;8.804;2023-10-31T14:35:45;2.50;;;1.50;;
8909;SDS011;4490;49.072;8.804;2023-10-31T14:38:11;2.47;;;1.50;;
8909;SDS011;4490;49.072;8.804;2023-10-31T14:40:36;1.73;;;1.40;;
8909;SDS011;4490;49.072;8.804;2023-10-31T14:43:02;2.73;;;1.40;;
8909;SDS011;4490;49.072;8.804;2023-10-31T14:45:28;4.57;;;1.60;;
8909;SDS011;4490;49.072;8.804;2023-10-31T14:47:53;2.40;;;1.20;;
8909;SDS011;4490;49.072;8.804;2023-10-31T14:50:19;2.70;;;1.47;;
8909;SDS011;4490;49.072;8.804;2023-10-31T14:52:48;2.03;;;1.40;;
8909;SDS011;4490;49.072;8.804;2023-10-31T14:55:14;1.73;;;1.40;;
8909;SDS011;4490;49.072;8.804;2023-10-31T14:57:40;2.10;;;1.77;;
8909;SDS011;4490;49.072;8.804;2023-10-31T15:00:06;2.30;;;1.40;;
8909;SDS011;4490;49.072;8.804;2023-10-31T15:02:37;6.10;;;1.43;;
8909;SDS011;4490;49.072;8.804;2023-10-31T15:05:02;4.87;;;1.70;;
8909;SDS011;4490;49.072;8.804;2023-10-31T15:07:29;4.07;;;1.70;;
8909;SDS011;4490;49.072;8.804;2023-10-31T15:09:54;4.30;;;1.70;;
8909;SDS011;4490;49.072;8.804;2023-10-31T15:12:20;6.80;;;1.93;;